createdAt,value
2022-11-15T00:04:17.384Z,19.14
2022-11-15T00:09:19.164Z,19.11
2022-11-15T00:14:21.081Z,19.13
2022-11-15T00:19:22.977Z,19.11
2022-11-15T00:24:24.821Z,19.15
2022-11-15T00:29:26.770Z,19.19
2022-11-15T00:34:28.732Z,19.16
2022-11-15T00:39:30.587Z,19.10
2022-11-15T00:44:32.394Z,19.15
2022-11-15T00:49:34.324Z,19.15
2022-11-15T00:54:36.223Z,19.17
2022-11-15T00:59:38.099Z,19.11
2022-11-15T01:04:40.564Z,19.09
2022-11-15T01:09:42.394Z,19.10
2022-11-15T01:14:47.320Z,19.17
2022-11-15T01:19:49.328Z,19.08
2022-11-15T01:24:51.711Z,19.13
2022-11-15T01:29:53.647Z,19.18
2022-11-15T01:34:55.463Z,19.18
2022-11-15T01:39:57.388Z,19.14
2022-11-15T01:44:59.053Z,19.19
2022-11-15T01:50:07.660Z,19.18
2022-11-15T01:55:18.297Z,19.18
2022-11-15T02:00:20.252Z,19.18
2022-11-15T02:05:22.232Z,19.17
2022-11-15T02:10:25.675Z,19.20
2022-11-15T02:15:38.729Z,19.21
2022-11-15T02:20:52.673Z,19.17
2022-11-15T02:26:25.702Z,19.18
2022-11-15T02:32:06.269Z,19.18
2022-11-15T02:37:35.304Z,19.16
2022-11-15T02:43:06.953Z,19.18
2022-11-15T02:48:12.416Z,19.17
2022-11-15T02:53:15.956Z,19.13
2022-11-15T02:58:48.272Z,19.16
2022-11-15T03:03:55.809Z,19.20
2022-11-15T03:09:03.401Z,19.15
2022-11-15T03:14:25.247Z,19.17
2022-11-15T03:19:30.191Z,19.15
2022-11-15T03:24:34.704Z,19.18
2022-11-15T03:29:43.634Z,19.21
2022-11-15T03:34:48.355Z,19.17
2022-11-15T03:39:50.548Z,19.18
2022-11-15T03:45:14.256Z,19.16
2022-11-15T03:50:21.449Z,19.17
2022-11-15T03:55:23.475Z,19.08
2022-11-15T04:00:25.429Z,19.15
2022-11-15T04:05:27.213Z,19.23
2022-11-15T04:10:29.014Z,19.16
2022-11-15T04:15:31.167Z,19.16
2022-11-15T04:20:51.893Z,19.20
2022-11-15T04:25:56.400Z,19.17
2022-11-15T04:30:58.390Z,19.14
2022-11-15T04:36:18.708Z,19.17
2022-11-15T04:41:20.752Z,19.15
2022-11-15T04:46:23.469Z,19.18
2022-11-15T04:51:25.418Z,19.19
2022-11-15T04:56:27.173Z,19.19
2022-11-15T05:01:29.155Z,19.17
2022-11-15T05:06:31.276Z,19.14
2022-11-15T05:11:33.469Z,19.19
2022-11-15T05:16:35.358Z,19.20
2022-11-15T05:21:37.820Z,19.21
2022-11-15T05:26:39.537Z,19.25
2022-11-15T05:31:43.070Z,19.23
2022-11-15T05:36:46.903Z,19.12
2022-11-15T05:41:56.923Z,19.21
2022-11-15T05:46:59.433Z,19.22
2022-11-15T05:52:01.785Z,19.15
2022-11-15T05:57:05.048Z,19.17
2022-11-15T06:02:07.108Z,19.21
2022-11-15T06:07:09.375Z,19.22
2022-11-15T06:12:11.521Z,19.20
2022-11-15T06:17:13.354Z,19.18
2022-11-15T06:22:15.133Z,19.15
2022-11-15T06:27:17.046Z,19.13
2022-11-15T06:32:18.846Z,19.26
2022-11-15T06:37:20.735Z,19.18
2022-11-15T06:42:22.526Z,19.18
2022-11-15T06:47:24.550Z,19.24
2022-11-15T06:52:26.495Z,19.20
2022-11-15T06:57:28.624Z,19.22
2022-11-15T07:02:30.767Z,19.23
2022-11-15T07:07:32.821Z,19.23
2022-11-15T07:12:34.954Z,19.21
2022-11-15T07:17:36.998Z,19.19
2022-11-15T07:22:39.168Z,19.20
2022-11-15T07:27:41.178Z,19.19
2022-11-15T07:32:43.753Z,19.11
2022-11-15T07:37:45.969Z,19.06
2022-11-15T07:42:53.956Z,19.11
2022-11-15T07:47:57.226Z,18.96
2022-11-15T07:53:00.709Z,18.96
2022-11-15T07:58:13.010Z,19.11
2022-11-15T08:03:16.963Z,19.17
2022-11-15T08:08:20.075Z,19.20
2022-11-15T08:13:22.502Z,19.03
2022-11-15T08:18:24.692Z,19.06
2022-11-15T08:23:26.749Z,19.19
2022-11-15T08:28:28.800Z,19.20
2022-11-15T08:33:31.200Z,19.25
2022-11-15T08:38:34.136Z,19.23
2022-11-15T08:43:36.426Z,19.22
2022-11-15T08:48:38.418Z,19.19
2022-11-15T08:53:40.236Z,19.24
2022-11-15T08:58:43.864Z,19.28
2022-11-15T09:03:45.994Z,19.26
2022-11-15T09:08:48.743Z,19.22
2022-11-15T09:13:51.245Z,19.19
2022-11-15T09:18:55.099Z,19.22
2022-11-15T09:23:57.127Z,19.16
2022-11-15T09:28:59.201Z,19.22
2022-11-15T09:34:01.249Z,19.14
2022-11-15T09:39:03.468Z,19.18
2022-11-15T09:44:30.000Z,19.22
2022-11-15T09:49:33.050Z,19.24
2022-11-15T09:54:52.867Z,19.21
2022-11-15T10:05:39.132Z,19.21
2022-11-15T10:10:44.792Z,19.24
2022-11-15T10:15:49.568Z,19.20
2022-11-15T10:20:58.889Z,19.21
2022-11-15T10:26:06.633Z,19.23
2022-11-15T10:31:28.911Z,19.19
2022-11-15T10:36:31.053Z,19.27
2022-11-15T10:41:37.347Z,19.28
2022-11-15T10:46:48.864Z,19.27
2022-11-15T10:51:52.275Z,19.28
2022-11-15T10:56:57.103Z,19.26
2022-11-15T11:01:59.336Z,19.28
2022-11-15T11:07:01.636Z,19.26
2022-11-15T11:12:05.908Z,19.32
2022-11-15T11:17:16.840Z,19.27
2022-11-15T11:22:48.262Z,19.32
2022-11-15T11:28:21.127Z,19.35
2022-11-15T11:33:35.112Z,19.24
2022-11-15T11:38:39.764Z,19.21
2022-11-15T11:44:12.161Z,19.07
2022-11-15T11:49:20.892Z,19.09
2022-11-15T11:54:32.628Z,19.21
2022-11-15T11:59:54.499Z,19.20
2022-11-15T12:05:20.975Z,19.27
2022-11-15T12:10:31.095Z,19.26
2022-11-15T12:15:40.836Z,19.25
2022-11-15T12:20:57.770Z,19.29
2022-11-15T12:26:03.719Z,19.29
2022-11-15T12:31:18.404Z,19.24
2022-11-15T12:36:23.330Z,19.28
2022-11-15T12:41:28.375Z,19.14
2022-11-15T12:46:30.246Z,19.21
2022-11-15T12:51:44.425Z,19.24
2022-11-15T12:56:46.365Z,19.28
2022-11-15T13:01:49.082Z,19.25
2022-11-15T13:07:08.654Z,19.28
2022-11-15T13:12:23.232Z,19.27
2022-11-15T13:17:34.504Z,19.24
2022-11-15T13:23:09.775Z,19.30
2022-11-15T13:28:17.651Z,19.23
2022-11-15T13:33:23.389Z,19.27
2022-11-15T13:38:33.688Z,19.22
2022-11-15T13:43:37.102Z,19.28
2022-11-15T13:48:39.425Z,19.27
2022-11-15T13:53:48.034Z,19.26
2022-11-15T13:58:50.258Z,19.28
2022-11-15T14:03:59.024Z,19.23
2022-11-15T14:09:05.812Z,19.27
2022-11-15T14:14:10.542Z,19.28
2022-11-15T14:19:33.316Z,19.24
2022-11-15T14:24:35.564Z,19.27
2022-11-15T14:29:37.569Z,19.28
2022-11-15T14:34:39.624Z,19.27
2022-11-15T14:39:42.838Z,19.24
2022-11-15T14:44:46.086Z,19.17
2022-11-15T14:49:48.277Z,19.22
2022-11-15T14:54:50.088Z,19.22
2022-11-15T14:59:52.308Z,19.28
2022-11-15T15:04:54.477Z,19.26
2022-11-15T15:10:06.737Z,19.25
2022-11-15T15:15:25.134Z,19.25
2022-11-15T15:20:27.313Z,19.28
2022-11-15T15:25:34.357Z,19.21
2022-11-15T15:30:36.545Z,19.20
2022-11-15T15:35:38.523Z,19.23
2022-11-15T15:40:40.783Z,19.24
2022-11-15T15:45:43.276Z,19.29
2022-11-15T15:50:45.438Z,19.22
2022-11-15T15:55:47.238Z,19.23
2022-11-15T16:00:49.406Z,19.19
2022-11-15T16:05:51.970Z,19.22
2022-11-15T16:10:53.928Z,19.08
2022-11-15T16:15:57.387Z,19.21
2022-11-15T16:20:59.192Z,19.22
2022-11-15T16:26:03.216Z,19.24
2022-11-15T16:31:06.534Z,19.26
2022-11-15T16:36:24.511Z,19.15
2022-11-15T16:41:31.135Z,19.19
2022-11-15T16:46:33.162Z,19.22
2022-11-15T16:51:34.896Z,19.21
2022-11-15T16:56:37.027Z,19.21
2022-11-15T17:01:47.079Z,19.20
2022-11-15T17:06:50.744Z,19.20
2022-11-15T17:11:53.435Z,19.22
2022-11-15T17:16:58.271Z,19.24
2022-11-15T17:22:00.195Z,19.20
2022-11-15T17:27:02.266Z,19.11
2022-11-15T17:32:04.412Z,19.17
2022-11-15T17:37:06.327Z,19.12
2022-11-15T17:42:08.706Z,19.10
2022-11-15T17:47:10.721Z,19.08
2022-11-15T17:52:12.640Z,19.20
2022-11-15T17:57:14.627Z,19.09
2022-11-15T18:02:16.657Z,19.05
2022-11-15T18:07:18.562Z,19.15
2022-11-15T18:12:20.562Z,19.14
2022-11-15T18:17:22.488Z,19.11
2022-11-15T18:22:25.247Z,19.17
2022-11-15T18:27:27.044Z,19.10
2022-11-15T18:32:29.282Z,19.16
2022-11-15T18:37:31.082Z,19.12
2022-11-15T18:42:33.225Z,19.11
2022-11-15T18:47:35.106Z,19.15
2022-11-15T18:52:37.260Z,19.15
2022-11-15T18:57:39.055Z,19.22
2022-11-15T19:02:41.103Z,19.20
2022-11-15T19:07:43.076Z,19.18
2022-11-15T19:12:47.375Z,19.15
2022-11-15T19:17:49.276Z,19.12
2022-11-15T19:22:51.039Z,19.20
2022-11-15T19:27:52.740Z,19.23
2022-11-15T19:32:54.561Z,19.18
2022-11-15T19:37:56.259Z,19.23
2022-11-15T19:42:57.946Z,19.21
2022-11-15T19:47:59.939Z,19.23
2022-11-15T19:53:01.821Z,19.13
2022-11-15T19:58:03.773Z,19.18
2022-11-15T20:03:06.011Z,19.21
2022-11-15T20:08:07.856Z,19.18
2022-11-15T20:13:09.763Z,19.06
2022-11-15T20:18:11.889Z,19.11
2022-11-15T20:23:14.427Z,19.06
2022-11-15T20:28:27.613Z,19.13
2022-11-15T20:33:29.623Z,19.15
2022-11-15T20:38:31.458Z,19.18
2022-11-15T20:43:33.508Z,19.22
2022-11-15T20:48:36.130Z,19.13
2022-11-15T20:53:38.415Z,19.07
2022-11-15T20:58:40.445Z,19.07
2022-11-15T21:03:43.089Z,19.16
2022-11-15T21:09:03.692Z,19.14
2022-11-15T21:14:09.269Z,19.13
2022-11-15T21:19:12.524Z,18.99
2022-11-15T21:24:14.416Z,19.01
2022-11-15T21:29:17.720Z,19.05
2022-11-15T21:34:20.264Z,19.14
2022-11-15T21:39:22.121Z,19.14
2022-11-15T21:44:24.438Z,19.10
2022-11-15T21:49:26.588Z,19.20
2022-11-15T21:54:28.569Z,19.12
2022-11-15T21:59:30.844Z,19.19
2022-11-15T22:04:33.406Z,19.12
2022-11-15T22:09:35.382Z,19.25
2022-11-15T22:14:37.273Z,19.20
2022-11-15T22:19:51.951Z,19.13
2022-11-15T22:24:54.559Z,19.18
2022-11-15T22:29:56.552Z,19.19
2022-11-15T22:34:58.734Z,19.23
2022-11-15T22:40:00.661Z,19.27
2022-11-15T22:45:02.525Z,19.25
2022-11-15T22:50:05.637Z,19.27
2022-11-15T22:55:08.080Z,19.24
2022-11-15T23:00:13.196Z,19.25
2022-11-15T23:05:14.956Z,19.24
2022-11-15T23:10:35.807Z,19.21
2022-11-15T23:15:56.222Z,19.31
2022-11-15T23:20:58.009Z,19.25
2022-11-15T23:26:00.159Z,19.29
2022-11-15T23:31:26.981Z,19.28
2022-11-15T23:36:30.008Z,19.31
2022-11-15T23:41:31.761Z,19.36
2022-11-15T23:46:34.338Z,19.23
2022-11-15T23:51:36.473Z,19.29
2022-11-15T23:56:38.607Z,19.31
